Time;durP1;ratioP1;P1;durP2;ratioP2;P2;SDS_P1;SDS_P2;PMS_P1;PMS_P2;Temp;Humidity;BMP_temperature;BMP_pressure;BME280_temperature;BME280_humidity;BME280_pressure;Samples;Min_cycle;Max_cycle;Signal;HPM_P1;HPM_P2
2023/05/04 00:00:33;;;;;;;14.00;6.70;;;3.10;99.90;2.10;101463;;;;584843;241;24153;-76
2023/05/04 00:03:01;;;;;;;12.33;7.57;;;3.10;99.90;2.10;101469;;;;585910;241;24080;-75
2023/05/04 00:05:30;;;;;;;14.20;6.80;;;3.10;99.90;2.10;101465;;;;583533;245;24116;-72
2023/05/04 00:07:58;;;;;;;12.33;6.30;;;3.10;99.90;2.00;101467;;;;576639;248;24169;-76
2023/05/04 00:10:26;;;;;;;13.20;6.43;;;3.00;99.90;2.00;101461;;;;579183;244;24101;-75
2023/05/04 00:12:56;;;;;;;11.23;6.57;;;3.00;99.90;2.00;101469;;;;568551;249;24125;-80
2023/05/04 00:15:22;;;;;;;15.57;6.23;;;3.00;99.90;1.90;101463;;;;580399;244;24082;-80
2023/05/04 00:17:49;;;;;;;14.67;6.67;;;3.00;99.90;2.00;101461;;;;565480;250;25160;-79
2023/05/04 00:20:17;;;;;;;13.37;6.17;;;2.80;99.90;1.90;101466;;;;579835;244;24050;-76
2023/05/04 00:22:45;;;;;;;11.40;6.13;;;3.00;99.90;2.00;101456;;;;579666;244;24112;-80
2023/05/04 00:25:13;;;;;;;14.40;6.97;;;3.10;99.90;1.90;101462;;;;579570;245;24084;-82
2023/05/04 00:27:41;;;;;;;10.27;5.67;;;2.90;99.90;2.00;101456;;;;581848;247;24139;-82
2023/05/04 00:30:13;;;;;;;12.00;6.53;;;3.00;99.90;2.00;101449;;;;579840;244;24049;-82
2023/05/04 00:32:37;;;;;;;15.90;7.00;;;2.90;99.90;1.90;101464;;;;579750;244;24135;-80
2023/05/04 00:35:09;;;;;;;8.83;6.83;;;3.10;99.90;1.90;101462;;;;579278;244;24065;-74
2023/05/04 00:37:33;;;;;;;15.87;7.30;;;2.90;99.90;1.90;101461;;;;578302;244;24070;-74
2023/05/04 00:40:01;;;;;;;13.03;6.73;;;2.90;99.90;1.90;101461;;;;578653;244;24109;-75
2023/05/04 00:42:30;;;;;;;11.43;7.60;;;2.90;99.90;1.80;101456;;;;578796;244;24081;-74
2023/05/04 00:44:58;;;;;;;12.07;7.13;;;2.80;99.90;1.80;101459;;;;578865;244;24022;-74
2023/05/04 00:47:29;;;;;;;16.00;8.90;;;2.80;99.90;1.80;101451;;;;578837;244;24089;-73
2023/05/04 00:49:54;;;;;;;18.10;9.00;;;2.80;99.90;1.80;101456;;;;578351;244;24059;-77
2023/05/04 00:52:22;;;;;;;15.20;8.60;;;2.90;99.90;1.90;101458;;;;578804;244;24062;-77
2023/05/04 00:54:50;;;;;;;14.87;8.50;;;2.90;99.90;2.00;101453;;;;587564;244;24064;-73
2023/05/04 00:57:18;;;;;;;14.93;8.67;;;2.90;99.90;2.00;101447;;;;576532;244;24085;-74
2023/05/04 00:59:46;;;;;;;16.27;8.93;;;3.10;99.90;2.00;101447;;;;578295;245;24074;-74
2023/05/04 01:02:14;;;;;;;15.60;8.13;;;3.00;99.90;2.00;101446;;;;578787;245;24066;-77
2023/05/04 01:04:42;;;;;;;12.10;8.70;;;3.00;99.90;2.10;101450;;;;573228;250;24086;-74
2023/05/04 01:07:13;;;;;;;15.37;8.80;;;3.00;99.90;2.10;101453;;;;584845;245;24185;-73
2023/05/04 01:09:59;;;;;;;13.63;8.97;;;3.20;99.90;2.20;101453;;;;572001;251;24090;-74
2023/05/04 01:12:38;;;;;;;23.60;9.07;;;3.20;99.90;2.20;101447;;;;577771;245;24109;-73
2023/05/04 01:15:07;;;;;;;16.30;8.37;;;3.20;99.90;2.20;101446;;;;565434;250;24151;-74
2023/05/04 01:17:38;;;;;;;14.73;9.10;;;3.20;99.90;2.20;101450;;;;579819;244;24078;-76
2023/05/04 01:20:03;;;;;;;13.50;8.87;;;3.20;99.90;2.20;101452;;;;579144;244;24097;-74
2023/05/04 01:22:34;;;;;;;19.00;9.23;;;3.20;99.90;2.20;101448;;;;588727;244;24054;-72
2023/05/04 01:24:59;;;;;;;15.87;9.20;;;3.20;99.90;2.20;101454;;;;566059;250;24097;-78
2023/05/04 01:27:27;;;;;;;12.83;9.13;;;3.20;99.90;2.20;101450;;;;585851;244;24088;-73
2023/05/04 01:29:57;;;;;;;19.53;10.40;;;3.20;99.90;2.20;101447;;;;573183;250;24109;-74
2023/05/04 01:32:26;;;;;;;19.27;9.97;;;3.20;99.90;2.20;101444;;;;579399;245;24069;-73
2023/05/04 01:34:57;;;;;;;17.02;11.55;;;3.20;99.90;2.20;101440;;;;575142;245;35208;-71
2023/05/04 01:37:22;;;;;;;12.03;6.77;;;3.10;99.90;2.10;101437;;;;577178;245;24076;-74
2023/05/04 01:39:50;;;;;;;14.37;7.73;;;3.10;99.90;2.00;101437;;;;587862;244;24098;-72
2023/05/04 01:42:18;;;;;;;14.13;7.20;;;3.10;99.90;2.00;101436;;;;564437;250;24108;-73
2023/05/04 01:44:45;;;;;;;12.90;7.60;;;3.00;99.90;2.00;101441;;;;584240;245;24110;-73
2023/05/04 01:47:13;;;;;;;11.43;7.17;;;2.90;99.90;1.90;101437;;;;573070;249;24127;-72
2023/05/04 01:49:41;;;;;;;9.70;6.70;;;3.00;99.90;1.90;101436;;;;584353;245;24066;-75
2023/05/04 01:52:09;;;;;;;9.00;6.97;;;2.90;99.90;1.90;101440;;;;587297;244;24070;-74
2023/05/04 01:54:37;;;;;;;11.73;7.20;;;2.90;99.90;1.90;101430;;;;587085;244;24073;-72
2023/05/04 01:57:05;;;;;;;10.47;6.90;;;2.90;99.90;1.80;101429;;;;572619;246;24152;-73
2023/05/04 01:59:34;;;;;;;9.57;6.57;;;2.90;99.90;1.80;101435;;;;584421;245;24081;-74
2023/05/04 02:02:02;;;;;;;8.57;6.70;;;2.80;99.90;1.70;101434;;;;573115;249;24124;-73
2023/05/04 02:04:33;;;;;;;16.93;7.23;;;2.80;99.90;1.70;101441;;;;578026;245;24082;-73
2023/05/04 02:06:57;;;;;;;13.07;7.73;;;2.80;99.90;1.70;101431;;;;577747;245;24098;-73
2023/05/04 02:09:28;;;;;;;10.97;7.23;;;2.70;99.90;1.70;101436;;;;572693;249;24165;-71
2023/05/04 02:11:56;;;;;;;12.97;8.07;;;2.70;99.90;1.70;101427;;;;571110;251;24096;-73
2023/05/04 02:14:24;;;;;;;12.60;8.30;;;2.80;99.90;1.80;101438;;;;584928;245;24072;-73
2023/05/04 02:16:51;;;;;;;13.67;7.57;;;2.90;99.90;1.80;101436;;;;587615;244;24191;-73
2023/05/04 02:19:19;;;;;;;14.27;7.80;;;2.80;99.90;1.80;101438;;;;587730;244;24085;-71
2023/05/04 02:21:51;;;;;;;13.17;7.80;;;2.80;99.90;1.80;101436;;;;564830;251;24138;-71
2023/05/04 02:24:17;;;;;;;14.90;7.50;;;2.80;99.90;1.80;101442;;;;584718;245;24160;-74
2023/05/04 02:26:45;;;;;;;12.07;7.07;;;2.90;99.90;1.90;101440;;;;588889;242;24045;-75
2023/05/04 02:29:13;;;;;;;14.10;7.90;;;2.80;99.90;1.90;101437;;;;588615;244;24051;-77
2023/05/04 02:31:41;;;;;;;13.80;7.20;;;3.80;99.90;1.90;101437;;;;574225;249;24089;-73
2023/05/04 02:34:09;;;;;;;7.90;6.53;;;2.90;99.90;1.90;101439;;;;585993;244;24061;-76
2023/05/04 02:36:37;;;;;;;11.03;6.70;;;2.90;99.90;1.90;101443;;;;565465;250;24081;-76
2023/05/04 02:39:05;;;;;;;8.10;6.07;;;2.90;99.90;1.90;101446;;;;585834;244;24073;-80
2023/05/04 02:41:33;;;;;;;12.57;6.77;;;2.80;99.90;1.80;101438;;;;574066;249;24085;-79
2023/05/04 02:44:00;;;;;;;10.27;6.10;;;2.80;99.90;1.80;101431;;;;585540;245;24119;-72
2023/05/04 02:46:29;;;;;;;12.73;7.33;;;2.80;99.90;1.80;101436;;;;587693;244;24094;-72
2023/05/04 02:48:56;;;;;;;7.03;5.97;;;2.70;99.90;1.70;101428;;;;587684;244;24106;-73
2023/05/04 02:51:25;;;;;;;9.10;6.50;;;2.70;99.90;1.70;101430;;;;564994;250;24101;-75
2023/05/04 02:53:53;;;;;;;13.20;6.60;;;2.70;99.90;1.60;101426;;;;584794;245;24079;-74
2023/05/04 02:56:21;;;;;;;7.73;5.73;;;2.60;99.90;1.60;101423;;;;573414;249;24086;-76
2023/05/04 02:58:49;;;;;;;12.33;6.27;;;2.60;99.90;1.50;101415;;;;584474;245;24086;-73
2023/05/04 03:01:17;;;;;;;10.33;6.50;;;2.60;99.90;1.50;101410;;;;587112;244;24089;-71
2023/05/04 03:03:45;;;;;;;8.67;6.07;;;2.60;99.90;1.50;101409;;;;572854;249;24163;-73
2023/05/04 03:06:13;;;;;;;17.17;7.33;;;2.50;99.90;1.40;101407;;;;584541;245;24093;-74
2023/05/04 03:08:41;;;;;;;10.90;6.47;;;2.50;99.90;1.40;101400;;;;587341;244;24116;-73
2023/05/04 03:11:10;;;;;;;12.27;6.77;;;2.50;99.90;1.40;101406;;;;587372;244;24121;-72
2023/05/04 03:13:38;;;;;;;11.73;7.23;;;2.50;99.90;1.40;101399;;;;587356;244;24177;-74
2023/05/04 03:16:06;;;;;;;17.23;6.93;;;2.50;99.90;1.50;101406;;;;564786;251;24104;-75
2023/05/04 03:18:34;;;;;;;9.53;6.37;;;2.50;99.90;1.50;101411;;;;584727;245;24070;-73
2023/05/04 03:21:04;;;;;;;9.23;6.73;;;2.60;99.90;1.60;101409;;;;573309;249;24199;-76
2023/05/04 03:23:29;;;;;;;10.90;6.93;;;2.60;99.90;1.60;101406;;;;575504;245;24131;-76
2023/05/04 03:25:58;;;;;;;10.40;7.17;;;2.70;99.90;1.70;101412;;;;587331;244;24118;-75
2023/05/04 03:28:26;;;;;;;15.37;7.80;;;2.70;99.90;1.70;101405;;;;587316;244;24087;-79
2023/05/04 03:30:54;;;;;;;13.50;7.60;;;2.70;99.90;1.80;101410;;;;587290;244;24093;-78
2023/05/04 03:33:22;;;;;;;13.37;7.73;;;2.80;99.90;1.90;101401;;;;587712;244;24065;-80
2023/05/04 03:35:51;;;;;;;13.32;6.20;;;2.80;99.90;1.90;101409;;;;582585;244;35378;-77
2023/05/04 03:38:19;;;;;;;5.80;4.67;;;2.90;99.90;2.00;101409;;;;566246;250;24114;-76
2023/05/04 03:40:46;;;;;;;10.20;5.43;;;3.00;99.90;2.00;101404;;;;585925;244;24064;-73
2023/05/04 03:43:14;;;;;;;9.47;5.67;;;3.10;99.90;2.10;101411;;;;574604;249;24103;-73
2023/05/04 03:45:47;;;;;;;10.83;7.00;;;3.10;99.90;2.20;101403;;;;586327;244;24083;-74
2023/05/04 03:48:11;;;;;;;14.27;6.73;;;3.10;99.90;2.30;101405;;;;579797;244;24068;-73
2023/05/04 03:50:39;;;;;;;12.40;6.90;;;3.30;99.90;2.40;101407;;;;588993;244;24063;-74
2023/05/04 03:53:08;;;;;;;11.70;7.23;;;3.40;99.90;2.50;101407;;;;574460;249;24085;-74
2023/05/04 03:55:36;;;;;;;10.87;6.37;;;3.50;99.90;2.60;101406;;;;579226;245;24165;-73
2023/05/04 03:58:04;;;;;;;14.40;5.90;;;3.50;99.90;2.70;101417;;;;574007;246;24097;-73
2023/05/04 04:00:33;;;;;;;13.20;5.30;;;3.80;99.90;2.90;101417;;;;579052;245;24062;-73
2023/05/04 04:03:01;;;;;;;14.33;5.17;;;3.80;99.90;3.00;101405;;;;588122;244;24244;-75
2023/05/04 04:05:29;;;;;;;10.10;5.23;;;4.10;99.90;3.20;101404;;;;588195;244;24076;-74
2023/05/04 04:07:57;;;;;;;7.37;4.83;;;4.00;99.90;3.50;101418;;;;579478;245;24084;-76
2023/05/04 04:10:27;;;;;;;15.30;4.80;;;5.20;99.90;4.50;101407;;;;588917;244;24016;-81
2023/05/04 04:12:54;;;;;;;7.93;4.10;;;5.30;99.90;5.70;101428;;;;579788;245;24069;-77
2023/05/04 04:15:21;;;;;;;7.47;3.60;;;6.50;99.90;7.00;101424;;;;574045;249;24081;-77
2023/05/04 04:17:49;;;;;;;11.87;4.37;;;7.90;99.90;8.50;101437;;;;587324;245;24120;-77
2023/05/04 04:20:17;;;;;;;7.53;3.83;;;9.40;99.90;9.90;101439;;;;588091;244;24141;-77
2023/05/04 04:22:45;;;;;;;12.80;4.07;;;10.80;99.90;11.20;101442;;;;574008;250;24128;-82
2023/05/04 04:25:13;;;;;;;9.80;4.47;;;12.30;99.90;12.50;101443;;;;579066;245;24097;-82
2023/05/04 04:27:41;;;;;;;5.70;4.43;;;13.50;99.90;13.50;101449;;;;587895;244;24169;-82
2023/05/04 04:30:09;;;;;;;8.73;4.40;;;14.60;99.90;14.20;101447;;;;560814;250;24085;-82
2023/05/04 04:32:37;;;;;;;15.63;5.40;;;15.40;99.90;15.10;101446;;;;564291;252;24140;-80
2023/05/04 04:35:05;;;;;;;10.93;4.20;;;16.40;99.90;16.10;101463;;;;576068;245;24051;-80
2023/05/04 04:37:33;;;;;;;25.17;5.07;;;17.40;99.90;17.10;101448;;;;575771;246;24097;-83
2023/05/04 04:40:04;;;;;;;12.93;4.00;;;18.30;98.80;17.80;101450;;;;575720;246;24092;-83
2023/05/04 04:42:29;;;;;;;6.50;4.33;;;19.10;94.80;18.70;101457;;;;575589;246;24049;-81
2023/05/04 04:44:56;;;;;;;6.07;4.00;;;19.90;91.50;19.60;101455;;;;575947;246;23062;-82
2023/05/04 04:47:24;;;;;;;11.33;4.77;;;20.70;86.20;20.40;101464;;;;576231;246;24051;-81
2023/05/04 04:49:52;;;;;;;10.20;5.03;;;21.50;79.70;21.20;101465;;;;577538;244;24036;-78
2023/05/04 04:52:22;;;;;;;10.50;5.03;;;22.30;74.30;21.90;101467;;;;579373;244;24065;-73
2023/05/04 04:54:51;;;;;;;17.60;6.20;;;23.10;69.60;22.60;101458;;;;577793;246;24121;-75
2023/05/04 04:57:16;;;;;;;17.03;4.97;;;23.80;65.40;23.20;101464;;;;574961;246;24057;-74
2023/05/04 04:59:45;;;;;;;20.77;5.97;;;24.40;61.50;23.90;101467;;;;574665;246;23066;-74
2023/05/04 05:02:12;;;;;;;12.60;4.63;;;25.00;58.70;24.50;101462;;;;548463;254;23145;-74
2023/05/04 05:04:42;;;;;;;17.37;5.37;;;25.70;55.60;24.90;101471;;;;574725;246;23084;-77
2023/05/04 05:07:10;;;;;;;11.60;4.77;;;26.20;53.80;25.70;101469;;;;574617;246;23145;-75
2023/05/04 05:09:44;;;;;;;6.33;4.20;;;26.90;53.10;26.30;101474;;;;547986;254;24164;-75
2023/05/04 05:12:09;;;;;;;8.50;4.17;;;27.50;51.30;26.80;101481;;;;583647;246;24132;-79
2023/05/04 05:14:38;;;;;;;11.18;4.43;;;27.90;49.90;27.20;101479;;;;574815;246;23065;-75
2023/05/04 05:17:06;;;;;;;6.87;4.43;;;28.40;48.60;27.90;101476;;;;574702;246;24169;-78
2023/05/04 05:19:35;;;;;;;6.43;4.22;;;28.90;47.60;28.30;101483;;;;548793;254;23126;-78
2023/05/04 05:22:01;;;;;;;10.73;5.55;;;29.40;46.30;28.60;101476;;;;574976;246;24369;-80
2023/05/04 05:24:29;;;;;;;13.98;5.80;;;29.70;45.40;28.90;101481;;;;575072;246;23105;-80
2023/05/04 05:26:57;;;;;;;8.23;4.57;;;30.00;44.70;29.30;101484;;;;574864;246;23124;-80
2023/05/04 05:29:25;;;;;;;6.15;3.97;;;30.20;44.30;29.50;101481;;;;548279;258;24136;-80
2023/05/04 05:31:53;;;;;;;11.75;3.70;;;30.50;43.50;30.00;101486;;;;574823;246;23104;-80
2023/05/04 05:34:22;;;;;;;12.75;2.97;;;31.00;42.00;30.00;101491;;;;574831;246;23080;-80
2023/05/04 05:36:51;;;;;;;4.45;2.42;;;31.40;41.70;30.40;101490;;;;575455;245;23146;-79
2023/05/04 05:39:19;;;;;;;13.93;3.50;;;31.90;41.00;31.00;101491;;;;578504;245;23084;-81
2023/05/04 05:41:48;;;;;;;10.52;3.28;;;32.30;39.80;31.40;101488;;;;578226;245;24083;-79
2023/05/04 05:44:16;;;;;;;8.00;2.33;;;32.20;39.70;32.00;101495;;;;578093;245;23129;-77
2023/05/04 05:46:44;;;;;;;8.38;2.22;;;32.80;39.40;32.40;101493;;;;585820;245;24088;-80
2023/05/04 05:49:11;;;;;;;3.70;1.85;;;33.20;38.10;32.90;101494;;;;578045;245;23079;-80
2023/05/04 05:51:43;;;;;;;2.97;1.90;;;33.70;37.00;33.10;101494;;;;578638;245;23108;-79
2023/05/04 05:54:07;;;;;;;10.02;2.28;;;34.00;37.00;33.10;101492;;;;578352;245;24103;-80
2023/05/04 05:56:35;;;;;;;10.05;2.08;;;34.00;36.70;33.30;101494;;;;578367;245;23098;-80
2023/05/04 05:59:03;;;;;;;5.80;2.83;;;34.10;36.40;33.10;101500;;;;577912;245;23134;-79
2023/05/04 06:01:31;;;;;;;6.18;1.85;;;34.00;36.20;33.40;101503;;;;579739;245;24325;-81
2023/05/04 06:03:59;;;;;;;5.50;2.25;;;34.10;36.40;33.90;101505;;;;579383;245;23064;-80
2023/05/04 06:06:27;;;;;;;5.62;1.87;;;34.60;36.10;33.90;101509;;;;578589;245;24094;-79
2023/05/04 06:08:55;;;;;;;5.03;2.12;;;34.70;35.40;33.80;101507;;;;578512;245;24073;-81
2023/05/04 06:11:23;;;;;;;3.20;1.55;;;34.60;35.30;34.00;101510;;;;587003;244;23092;-85
2023/05/04 06:13:51;;;;;;;6.20;3.08;;;34.70;35.20;34.70;101508;;;;573394;245;35172;-83
2023/05/04 06:16:19;;;;;;;5.78;2.20;;;35.20;34.60;35.00;101512;;;;578115;245;23058;-83
2023/05/04 06:18:46;;;;;;;6.93;3.22;;;35.60;34.60;35.50;101514;;;;577831;245;23094;-82
2023/05/04 06:21:15;;;;;;;5.00;2.75;;;36.30;34.30;35.60;101516;;;;572958;247;23092;-84
2023/05/04 06:23:44;;;;;;;9.55;2.80;;;36.20;33.80;35.50;101514;;;;574041;245;23172;-85
2023/05/04 06:26:14;;;;;;;19.48;3.75;;;36.10;33.70;35.30;101514;;;;575732;245;24177;-84
2023/05/04 06:28:42;;;;;;;21.52;3.72;;;36.10;33.70;35.50;101516;;;;578932;245;23103;-84
2023/05/04 06:31:10;;;;;;;10.02;2.87;;;36.20;33.80;35.70;101508;;;;576655;245;23101;-85
2023/05/04 06:33:37;;;;;;;10.20;3.75;;;36.40;33.30;35.30;101509;;;;576057;249;23113;-84
2023/05/04 06:36:05;;;;;;;4.95;2.60;;;36.10;33.30;34.60;101507;;;;571544;246;23077;-85
2023/05/04 06:38:33;;;;;;;4.07;2.20;;;35.50;33.10;33.70;101504;;;;575925;248;23128;-85
2023/05/04 06:41:03;;;;;;;5.85;2.58;;;34.60;33.40;33.90;101514;;;;550155;255;23135;-85
2023/05/04 06:43:34;;;;;;;10.85;2.05;;;34.60;34.50;34.50;101510;;;;575024;245;23056;-82
2023/05/04 06:46:05;;;;;;;3.65;2.17;;;35.00;33.90;34.70;101511;;;;564643;247;23170;-82
2023/05/04 06:48:33;;;;;;;7.12;2.50;;;35.20;34.20;34.20;101509;;;;578604;245;23115;-85
2023/05/04 06:51:01;;;;;;;4.72;2.92;;;34.90;33.50;33.70;101511;;;;572015;245;35127;-86
2023/05/04 06:53:29;;;;;;;3.62;2.45;;;34.40;33.30;33.70;101510;;;;553972;255;23242;-85
2023/05/04 06:55:57;;;;;;;12.43;3.03;;;34.60;33.70;34.20;101506;;;;577401;245;23105;-86
2023/05/04 06:58:26;;;;;;;6.00;3.12;;;34.90;33.80;34.40;101503;;;;575586;244;23113;-83
2023/05/04 07:00:54;;;;;;;6.85;2.67;;;34.80;33.70;34.70;101516;;;;579497;244;23066;-84
2023/05/04 07:03:22;;;;;;;26.58;4.07;;;35.10;33.50;35.30;101514;;;;579411;244;23064;-84
2023/05/04 07:05:51;;;;;;;7.37;2.60;;;36.20;32.90;35.80;101511;;;;566093;250;23183;-83
2023/05/04 07:08:20;;;;;;;7.25;2.65;;;36.20;32.90;36.40;101506;;;;555591;255;23098;-84
2023/05/04 07:10:48;;;;;;;8.80;2.25;;;36.70;32.50;37.10;101506;;;;578668;245;23120;-83
2023/05/04 07:13:16;;;;;;;29.95;4.22;;;37.40;32.10;37.90;101504;;;;560554;252;23140;-80
2023/05/04 07:15:44;;;;;;;14.85;3.08;;;38.20;31.80;38.60;101505;;;;576474;248;23152;-79
2023/05/04 07:18:12;;;;;;;18.35;3.00;;;38.90;31.20;39.00;101507;;;;567191;250;23117;-78
2023/05/04 07:20:40;;;;;;;7.18;2.50;;;39.40;30.70;39.50;101509;;;;591293;242;23019;-81
2023/05/04 07:23:07;;;;;;;7.32;2.80;;;39.80;30.20;39.60;101501;;;;557490;254;23105;-80
2023/05/04 07:25:35;;;;;;;52.75;7.30;;;40.00;30.20;39.70;101500;;;;584445;243;24144;-79
2023/05/04 07:28:03;;;;;;;3.45;1.98;;;40.20;30.00;39.80;101499;;;;568094;249;23068;-81
2023/05/04 07:30:31;;;;;;;5.00;2.03;;;40.30;29.80;40.10;101507;;;;584027;244;23032;-82
2023/05/04 07:33:00;;;;;;;10.38;3.05;;;40.50;29.90;40.50;101505;;;;568024;249;23097;-84
2023/05/04 07:35:27;;;;;;;31.80;3.60;;;40.90;29.60;40.80;101503;;;;584539;244;22999;-78
2023/05/04 07:37:55;;;;;;;10.88;2.62;;;41.20;29.60;41.20;101493;;;;584320;244;23054;-81
2023/05/04 07:40:24;;;;;;;6.70;2.58;;;41.60;29.30;41.50;101498;;;;585315;242;23072;-81
2023/05/04 07:42:51;;;;;;;5.65;2.45;;;41.80;28.90;41.40;101499;;;;570647;251;23104;-81
2023/05/04 07:45:19;;;;;;;20.23;3.75;;;41.90;29.40;41.50;101496;;;;589488;242;23051;-78
2023/05/04 07:47:47;;;;;;;7.62;2.60;;;42.00;29.10;41.80;101494;;;;589627;242;23028;-78
2023/05/04 07:50:14;;;;;;;7.37;2.22;;;42.20;28.60;41.80;101495;;;;570343;251;23101;-80
2023/05/04 07:52:44;;;;;;;14.73;2.37;;;42.40;28.30;41.60;101507;;;;589521;242;23045;-80
2023/05/04 07:55:10;;;;;;;4.75;2.30;;;42.20;28.50;41.70;101498;;;;589179;242;23021;-78
2023/05/04 07:57:38;;;;;;;3.62;2.10;;;42.20;29.20;41.80;101502;;;;568517;251;24182;-81
2023/05/04 08:00:10;;;;;;;8.88;2.20;;;42.30;28.80;41.90;101502;;;;572108;249;23112;-84
2023/05/04 08:02:34;;;;;;;9.25;2.83;;;42.40;28.50;42.00;101507;;;;579954;242;23079;-80
2023/05/04 08:05:05;;;;;;;11.93;3.50;;;42.60;28.40;41.20;101504;;;;589338;242;23033;-82
2023/05/04 08:07:30;;;;;;;12.70;3.60;;;42.00;28.30;41.20;101496;;;;586091;242;24089;-81
2023/05/04 08:09:58;;;;;;;12.68;3.05;;;41.80;28.60;41.30;101504;;;;586013;243;23028;-79
2023/05/04 08:12:26;;;;;;;5.43;2.35;;;41.90;28.50;40.90;101502;;;;577978;245;23110;-79
2023/05/04 08:14:54;;;;;;;6.72;2.87;;;41.70;28.60;41.30;101499;;;;577698;245;24136;-80
2023/05/04 08:17:22;;;;;;;4.55;2.25;;;41.80;28.80;41.50;101497;;;;579444;245;23091;-83
2023/05/04 08:19:50;;;;;;;6.43;2.60;;;42.10;28.50;41.80;101499;;;;577353;248;23110;-79
2023/05/04 08:22:19;;;;;;;4.82;2.83;;;42.30;28.30;42.20;101497;;;;572620;244;23104;-81
2023/05/04 08:24:46;;;;;;;12.10;3.78;;;43.20;28.70;42.50;101495;;;;566857;252;23113;-85
2023/05/04 08:27:15;;;;;;;7.97;2.60;;;43.50;28.10;42.70;101494;;;;585887;244;23108;-82
2023/05/04 08:29:44;;;;;;;4.35;2.00;;;43.40;27.80;42.60;101495;;;;557978;253;23103;-81
2023/05/04 08:32:12;;;;;;;10.48;2.85;;;43.40;27.80;42.60;101485;;;;555973;255;23100;-84
2023/05/04 08:34:39;;;;;;;5.20;2.25;;;43.40;27.90;42.80;101488;;;;580132;244;23077;-78
2023/05/04 08:37:07;;;;;;;6.75;3.05;;;43.60;27.60;42.60;101488;;;;574699;248;23144;-86
2023/05/04 08:39:36;;;;;;;7.15;2.12;;;43.60;27.50;43.10;101491;;;;580076;244;23024;-87
2023/05/04 08:42:03;;;;;;;8.90;2.80;;;43.90;27.80;43.20;101499;;;;565839;250;23074;-86
2023/05/04 08:44:31;;;;;;;9.88;2.40;;;44.10;27.50;43.40;101492;;;;579939;244;23030;-85
2023/05/04 08:46:59;;;;;;;8.00;2.35;;;44.30;27.30;43.00;101496;;;;577139;244;23078;-84
2023/05/04 08:49:30;;;;;;;2.72;1.90;;;44.20;27.50;42.10;101492;;;;563217;254;23152;-86
2023/05/04 08:51:59;;;;;;;3.05;1.80;;;43.70;26.70;41.60;101494;;;;577185;244;23037;-85
2023/05/04 08:54:23;;;;;;;1.87;1.48;;;43.10;26.90;41.60;101500;;;;581287;242;23047;-85
2023/05/04 08:56:51;;;;;;;2.67;2.20;;;43.00;27.30;42.30;101497;;;;585795;242;24047;-83
2023/05/04 08:59:23;;;;;;;9.32;2.72;;;43.60;27.50;42.30;101493;;;;577564;246;23148;-86
2023/05/04 09:01:48;;;;;;;7.25;2.03;;;43.80;27.30;42.60;101488;;;;552216;253;23153;-86
2023/05/04 09:04:17;;;;;;;10.52;3.65;;;43.80;27.30;42.60;101494;;;;578182;245;23114;-86
2023/05/04 09:06:46;;;;;;;15.70;3.62;;;43.90;26.80;42.60;101487;;;;577678;245;23099;-84
2023/05/04 09:09:12;;;;;;;47.58;7.87;;;44.00;26.80;42.20;101481;;;;582093;245;23087;-79
2023/05/04 09:11:43;;;;;;;12.32;3.20;;;43.70;27.00;42.20;101478;;;;577783;245;23082;-81
2023/05/04 09:14:08;;;;;;;7.40;2.80;;;43.40;27.10;42.40;101483;;;;576573;246;23128;-76
2023/05/04 09:16:40;;;;;;;10.80;3.47;;;43.70;27.20;42.50;101482;;;;561477;252;23152;-80
2023/05/04 09:19:05;;;;;;;9.65;2.80;;;43.80;27.50;42.50;101488;;;;561040;253;23110;-78
2023/05/04 09:21:33;;;;;;;5.40;2.65;;;43.80;27.00;42.40;101490;;;;569284;249;23162;-81
2023/05/04 09:24:01;;;;;;;3.53;2.12;;;43.80;27.10;42.40;101489;;;;553074;253;23134;-79
2023/05/04 09:26:29;;;;;;;8.70;2.95;;;43.90;26.20;42.40;101486;;;;571516;248;23093;-80
2023/05/04 09:28:57;;;;;;;6.75;3.12;;;43.90;26.40;42.10;101484;;;;565687;246;23155;-80
2023/05/04 09:31:25;;;;;;;7.65;3.22;;;43.90;26.60;42.50;101486;;;;578340;246;35164;-83
2023/05/04 09:33:53;;;;;;;4.10;2.25;;;44.30;26.40;42.20;101479;;;;574740;246;23060;-83
2023/05/04 09:36:23;;;;;;;5.57;2.97;;;44.00;26.20;42.40;101480;;;;576032;246;23094;-82
2023/05/04 09:38:48;;;;;;;4.53;2.22;;;44.00;26.10;42.30;101482;;;;561964;253;23136;-85
2023/05/04 09:41:17;;;;;;;5.97;2.78;;;44.10;26.10;42.30;101486;;;;550691;256;23123;-84
2023/05/04 09:43:45;;;;;;;4.70;2.37;;;44.20;26.30;42.70;101478;;;;572272;247;23125;-83
2023/05/04 09:46:22;;;;;;;6.62;2.35;;;44.40;25.70;43.00;101480;;;;571954;247;23085;-79
2023/05/04 09:48:53;;;;;;;9.23;3.03;;;45.00;25.50;43.10;101479;;;;571660;243;23138;-85
2023/05/04 09:51:21;;;;;;;20.20;4.25;;;45.00;25.50;43.80;101491;;;;571840;247;23127;-83
2023/05/04 09:53:52;;;;;;;9.02;2.40;;;45.50;25.20;43.80;101487;;;;580669;247;23113;-84
2023/05/04 09:56:32;;;;;;;13.25;3.08;;;45.90;25.20;44.20;101481;;;;577880;247;23075;-83
2023/05/04 09:58:59;;;;;;;11.35;4.22;;;46.20;25.40;44.00;101475;;;;571343;247;23086;-82
2023/05/04 10:01:30;;;;;;;19.90;5.00;;;46.20;25.90;43.60;101474;;;;572097;247;23064;-84
2023/05/04 10:03:58;;;;;;;14.35;5.43;;;45.90;26.10;42.70;101465;;;;557531;257;23338;-85
2023/05/04 10:06:26;;;;;;;29.08;5.22;;;45.30;26.80;41.30;101473;;;;572157;247;23049;-84
2023/05/04 10:08:57;;;;;;;9.60;3.67;;;44.10;26.50;40.20;101477;;;;549899;257;23166;-84
2023/05/04 10:11:25;;;;;;;17.70;5.07;;;42.90;27.20;40.60;101475;;;;571944;248;23104;-82
2023/05/04 10:13:49;;;;;;;12.82;4.87;;;42.60;27.30;40.60;101466;;;;574898;241;23074;-81
2023/05/04 10:16:26;;;;;;;16.65;3.75;;;42.50;27.00;40.00;101464;;;;552375;249;24230;-79
2023/05/04 10:19:37;;;;;;;8.32;3.78;;;42.10;27.00;39.60;101455;;;;591156;241;23060;-80
2023/05/04 10:22:32;;;;;;;9.18;3.70;;;41.80;27.50;38.50;101450;;;;582330;242;23081;-77
2023/05/04 10:25:00;;;;;;;19.00;4.72;;;40.90;27.30;36.90;101447;;;;583042;242;23075;-79
2023/05/04 10:28:02;;;;;;;10.70;3.65;;;38.30;28.60;35.60;101451;;;;580995;242;24145;-75
2023/05/04 10:30:30;;;;;;;18.12;4.43;;;37.00;28.50;34.80;101441;;;;583880;242;23061;-76
2023/05/04 10:32:57;;;;;;;11.70;3.40;;;35.80;29.10;32.60;101442;;;;582255;242;23079;-76
2023/05/04 10:35:26;;;;;;;11.93;3.50;;;35.50;29.40;30.30;101449;;;;582590;242;23118;-79
2023/05/04 10:37:57;;;;;;;5.90;3.25;;;31.50;31.60;28.80;101442;;;;585686;244;23064;-74
2023/05/04 10:40:36;;;;;;;12.07;3.62;;;29.50;32.50;28.00;101433;;;;575818;245;24087;-76
2023/05/04 10:43:05;;;;;;;6.65;3.15;;;28.20;33.10;26.50;101428;;;;584733;245;23102;-76
2023/05/04 10:45:39;;;;;;;14.03;5.13;;;26.70;36.20;24.90;101435;;;;572978;245;35246;-76
2023/05/04 10:48:09;;;;;;;6.67;3.43;;;25.30;37.50;23.90;101427;;;;556058;252;35364;-79
2023/05/04 10:50:46;;;;;;;12.37;3.92;;;24.10;39.00;23.10;101430;;;;578540;241;35087;-79
2023/05/04 10:53:15;;;;;;;13.13;3.33;;;23.10;39.30;22.30;101427;;;;586792;241;23098;-81
2023/05/04 10:55:49;;;;;;;13.60;3.73;;;22.10;43.00;21.50;101424;;;;590246;241;24066;-80
2023/05/04 10:58:17;;;;;;;10.67;4.00;;;21.50;40.00;20.80;101415;;;;578078;244;24075;-78
2023/05/04 11:00:45;;;;;;;13.23;4.00;;;21.20;44.40;20.30;101415;;;;578599;244;24073;-75
2023/05/04 11:03:13;;;;;;;5.83;3.33;;;20.50;43.40;19.70;101413;;;;559832;253;23149;-80
2023/05/04 11:05:44;;;;;;;6.20;2.77;;;20.00;45.30;19.20;101401;;;;578530;245;23090;-78
2023/05/04 11:08:20;;;;;;;26.97;5.20;;;19.00;46.70;18.80;101401;;;;573183;249;24123;-78
2023/05/04 11:10:48;;;;;;;32.97;6.50;;;19.00;48.40;18.50;101397;;;;568077;249;24118;-80
2023/05/04 11:13:16;;;;;;;13.47;4.47;;;19.10;50.50;18.10;101398;;;;551666;260;24154;-79
2023/05/04 11:15:53;;;;;;;27.00;4.60;;;18.30;51.50;17.80;101400;;;;567918;249;24098;-81
2023/05/04 11:18:30;;;;;;;12.20;4.77;;;18.10;46.10;17.60;101399;;;;547397;257;24162;-79